createdAt,value
2023-10-30T00:00:07.074Z,12.05
2023-10-30T00:05:10.616Z,12.21
2023-10-30T00:10:12.659Z,12.15
2023-10-30T00:15:16.230Z,12.29
2023-10-30T00:20:18.471Z,12.28
2023-10-30T00:25:20.661Z,12.29
2023-10-30T00:30:24.173Z,12.24
2023-10-30T00:35:26.292Z,12.35
2023-10-30T00:40:28.598Z,12.17
2023-10-30T00:45:32.153Z,12.21
2023-10-30T00:50:34.314Z,12.23
2023-10-30T00:55:38.044Z,12.13
2023-10-30T01:00:41.447Z,12.20
2023-10-30T01:05:43.960Z,12.14
2023-10-30T01:10:46.185Z,12.12
2023-10-30T01:15:52.741Z,12.16
2023-10-30T01:20:54.888Z,12.12
2023-10-30T01:25:56.854Z,12.14
2023-10-30T01:31:00.349Z,12.12
2023-10-30T01:36:02.464Z,12.13
2023-10-30T01:41:04.795Z,12.06
2023-10-30T01:46:08.554Z,12.03
2023-10-30T01:51:13.008Z,12.16
2023-10-30T01:56:16.072Z,12.06
2023-10-30T02:01:19.755Z,12.05
2023-10-30T02:06:22.242Z,12.02
2023-10-30T02:11:24.359Z,11.99
2023-10-30T02:16:27.982Z,12.03
2023-10-30T02:21:30.173Z,11.97
2023-10-30T02:26:33.752Z,12.18
2023-10-30T02:31:35.824Z,12.18
2023-10-30T02:36:38.025Z,12.17
2023-10-30T02:41:41.649Z,12.11
2023-10-30T02:46:43.730Z,12.09
2023-10-30T02:51:45.742Z,12.18
2023-10-30T02:56:49.342Z,12.20
2023-10-30T03:01:51.804Z,12.31
2023-10-30T03:06:54.481Z,12.27
2023-10-30T03:11:58.167Z,12.27
2023-10-30T03:17:00.369Z,12.19
2023-10-30T03:22:02.306Z,12.27
2023-10-30T03:27:06.249Z,12.25
2023-10-30T03:32:08.347Z,12.23
2023-10-30T03:37:10.628Z,12.27
2023-10-30T03:42:14.157Z,12.23
2023-10-30T03:47:16.289Z,12.23
2023-10-30T03:52:18.482Z,12.10
2023-10-30T03:57:22.365Z,12.08
2023-10-30T04:02:24.710Z,12.02
2023-10-30T04:07:27.048Z,11.95
2023-10-30T04:12:30.992Z,11.95
2023-10-30T04:17:33.016Z,11.95
2023-10-30T04:22:35.142Z,11.93
2023-10-30T04:27:38.647Z,11.82
2023-10-30T04:32:40.843Z,11.87
2023-10-30T04:37:42.917Z,11.88
2023-10-30T04:42:48.304Z,11.85
2023-10-30T04:47:50.336Z,11.78
2023-10-30T04:52:52.625Z,11.74
2023-10-30T04:57:56.182Z,11.71
2023-10-30T05:02:58.310Z,11.71
2023-10-30T05:08:00.754Z,11.69
2023-10-30T05:13:04.276Z,11.71
2023-10-30T05:18:06.318Z,11.67
2023-10-30T05:23:08.418Z,11.56
2023-10-30T05:28:12.056Z,11.60
2023-10-30T05:33:14.289Z,11.63
2023-10-30T05:38:16.442Z,11.66
2023-10-30T05:43:19.943Z,11.69
2023-10-30T05:48:22.139Z,11.68
2023-10-30T05:53:23.919Z,11.81
2023-10-30T05:58:27.450Z,11.83
2023-10-30T06:03:29.612Z,11.72
2023-10-30T06:08:31.934Z,11.76
2023-10-30T06:13:35.493Z,11.77
2023-10-30T06:18:37.721Z,11.82
2023-10-30T06:23:39.906Z,11.89
2023-10-30T06:28:43.348Z,11.89
2023-10-30T06:33:46.509Z,11.99
2023-10-30T06:38:48.539Z,12.12
2023-10-30T06:43:52.130Z,12.17
2023-10-30T06:48:54.228Z,12.27
2023-10-30T06:53:56.298Z,12.27
2023-10-30T06:58:59.858Z,12.37
2023-10-30T07:04:02.028Z,12.53
2023-10-30T07:09:04.751Z,12.89
2023-10-30T07:14:08.622Z,13.05
2023-10-30T07:19:10.723Z,13.10
2023-10-30T07:24:12.908Z,13.32
2023-10-30T07:29:16.267Z,13.36
2023-10-30T07:34:18.682Z,13.32
2023-10-30T07:39:20.876Z,13.41
2023-10-30T07:44:24.631Z,13.69
2023-10-30T07:49:26.776Z,13.77
2023-10-30T07:54:28.919Z,14.09
2023-10-30T07:59:32.392Z,14.17
2023-10-30T08:04:34.590Z,14.00
2023-10-30T08:09:37.075Z,13.99
2023-10-30T08:14:40.686Z,14.00
2023-10-30T08:19:42.930Z,13.91
2023-10-30T08:24:45.094Z,13.80
2023-10-30T08:29:48.779Z,13.80
2023-10-30T08:34:51.204Z,13.96
2023-10-30T08:39:53.912Z,14.02
2023-10-30T08:44:57.382Z,14.38
2023-10-30T08:49:59.464Z,14.44
2023-10-30T08:55:04.232Z,14.82
2023-10-30T09:00:08.922Z,14.94
2023-10-30T09:05:11.169Z,15.22
2023-10-30T09:10:13.738Z,15.20
2023-10-30T09:15:17.464Z,15.26
2023-10-30T09:20:19.489Z,15.61
2023-10-30T09:25:21.842Z,15.71
2023-10-30T09:30:25.351Z,15.44
2023-10-30T09:35:27.633Z,15.38
2023-10-30T09:40:29.716Z,15.38
2023-10-30T09:45:37.164Z,15.49
2023-10-30T09:50:40.503Z,15.54
2023-10-30T09:55:43.706Z,15.60
2023-10-30T10:00:47.647Z,15.60
2023-10-30T10:06:00.860Z,15.61
2023-10-30T10:11:04.194Z,15.54
2023-10-30T10:16:08.301Z,15.54
2023-10-30T10:21:10.487Z,15.28
2023-10-30T10:26:12.635Z,15.28
2023-10-30T10:31:18.006Z,15.35
2023-10-30T10:36:20.112Z,15.52
2023-10-30T10:41:22.433Z,15.72
2023-10-30T10:46:26.470Z,15.65
2023-10-30T10:51:35.865Z,15.38
2023-10-30T10:56:39.291Z,15.63
2023-10-30T11:01:46.973Z,16.16
2023-10-30T11:06:55.682Z,17.57
2023-10-30T11:12:11.745Z,18.17
2023-10-30T11:17:16.775Z,17.87
2023-10-30T11:22:39.622Z,17.13
2023-10-30T11:27:42.678Z,15.89
2023-10-30T11:32:57.944Z,15.54
2023-10-30T11:38:00.258Z,15.44
2023-10-30T11:43:08.666Z,15.79
2023-10-30T11:48:13.997Z,16.48
2023-10-30T11:53:16.795Z,16.16
2023-10-30T11:58:20.106Z,15.91
2023-10-30T12:03:23.770Z,15.51
2023-10-30T12:08:26.174Z,15.75
2023-10-30T12:13:28.770Z,15.52
2023-10-30T12:18:32.394Z,15.58
2023-10-30T12:23:34.426Z,15.60
2023-10-30T12:28:36.862Z,15.83
2023-10-30T12:33:40.612Z,16.67
2023-10-30T12:38:42.707Z,16.85
2023-10-30T12:43:44.849Z,16.76
2023-10-30T12:48:48.009Z,16.51
2023-10-30T12:53:51.373Z,16.42
2023-10-30T12:58:54.128Z,16.27
2023-10-30T13:03:57.697Z,16.03
2023-10-30T13:08:59.886Z,16.09
2023-10-30T13:14:02.178Z,16.20
2023-10-30T13:19:05.869Z,15.96
2023-10-30T13:24:08.256Z,16.06
2023-10-30T13:29:10.330Z,16.13
2023-10-30T13:34:13.970Z,16.29
2023-10-30T13:39:16.201Z,16.36
2023-10-30T13:44:18.442Z,16.33
2023-10-30T13:49:22.193Z,16.19
2023-10-30T13:54:24.342Z,16.03
2023-10-30T13:59:26.611Z,15.76
2023-10-30T14:04:31.170Z,15.63
2023-10-30T14:09:33.543Z,15.49
2023-10-30T14:14:35.946Z,15.39
2023-10-30T14:19:39.659Z,15.34
2023-10-30T14:24:41.838Z,15.40
2023-10-30T14:29:44.048Z,15.14
2023-10-30T14:34:47.905Z,15.14
2023-10-30T14:39:50.350Z,15.04
2023-10-30T14:44:52.653Z,14.75
2023-10-30T14:49:56.094Z,14.93
2023-10-30T14:54:58.532Z,14.87
2023-10-30T15:00:00.570Z,14.67
2023-10-30T15:05:04.824Z,14.49
2023-10-30T15:10:08.398Z,14.53
2023-10-30T15:15:10.902Z,14.42
2023-10-30T15:20:14.517Z,14.41
2023-10-30T15:25:16.882Z,14.18
2023-10-30T15:30:19.083Z,14.05
2023-10-30T15:35:23.126Z,14.22
2023-10-30T15:40:25.187Z,14.12
2023-10-30T15:45:27.255Z,13.91
2023-10-30T15:50:30.826Z,13.65
2023-10-30T16:00:39.933Z,13.43
2023-10-30T16:05:47.517Z,13.37
2023-10-30T16:16:11.650Z,13.69
2023-10-30T16:21:16.760Z,13.49
2023-10-30T16:26:19.291Z,13.47
2023-10-30T16:31:21.598Z,13.48
2023-10-30T16:36:25.339Z,13.39
2023-10-30T16:41:27.556Z,13.39
2023-10-30T16:46:29.762Z,13.53
2023-10-30T16:51:33.473Z,13.39
2023-10-30T16:56:35.581Z,13.36
2023-10-30T17:01:37.720Z,13.28
2023-10-30T17:06:41.331Z,13.20
2023-10-30T17:11:43.459Z,13.23
2023-10-30T17:16:46.029Z,13.29
2023-10-30T17:21:50.001Z,13.04
2023-10-30T17:26:52.127Z,13.21
2023-10-30T17:31:54.390Z,12.94
2023-10-30T17:36:57.878Z,12.86
2023-10-30T17:42:00.006Z,12.64
2023-10-30T17:47:02.202Z,12.76
2023-10-30T17:52:05.956Z,12.30
2023-10-30T17:57:08.184Z,12.38
2023-10-30T18:02:10.372Z,12.71
2023-10-30T18:07:13.981Z,12.48
2023-10-30T18:12:16.216Z,12.41
2023-10-30T18:17:18.565Z,12.45
2023-10-30T18:22:22.068Z,12.48
2023-10-30T18:27:24.123Z,12.38
2023-10-30T18:32:26.355Z,12.25
2023-10-30T18:37:30.650Z,12.39
2023-10-30T18:42:33.522Z,12.30
2023-10-30T18:47:35.849Z,12.57
2023-10-30T18:52:39.567Z,12.44
2023-10-30T18:57:41.876Z,12.26
2023-10-30T19:02:44.037Z,12.10
2023-10-30T19:07:48.300Z,12.08
2023-10-30T19:12:50.550Z,12.13
2023-10-30T19:17:52.937Z,11.84
2023-10-30T19:22:56.456Z,12.04
2023-10-30T19:27:58.586Z,11.81
2023-10-30T19:33:00.767Z,11.99
2023-10-30T19:38:04.459Z,11.87
2023-10-30T19:43:06.631Z,11.83
2023-10-30T19:48:08.813Z,11.90
2023-10-30T19:53:12.513Z,12.18
2023-10-30T19:58:14.485Z,11.56
2023-10-30T20:03:16.731Z,11.33
2023-10-30T20:08:20.268Z,11.38
2023-10-30T20:13:22.530Z,11.41
2023-10-30T20:18:25.140Z,11.60
2023-10-30T20:23:28.653Z,11.53
2023-10-30T20:28:30.838Z,11.41
2023-10-30T20:33:33.214Z,11.59
2023-10-30T20:38:36.766Z,11.31
2023-10-30T20:43:38.934Z,11.48
2023-10-30T20:48:41.286Z,11.38
2023-10-30T20:53:44.669Z,11.53
2023-10-30T20:58:46.782Z,11.57
2023-10-30T21:03:48.854Z,11.94
2023-10-30T21:08:52.365Z,11.91
2023-10-30T21:13:54.764Z,11.82
2023-10-30T21:18:57.092Z,11.79
2023-10-30T21:24:00.910Z,11.68
2023-10-30T21:29:02.957Z,11.73
2023-10-30T21:34:05.922Z,11.59
2023-10-30T21:39:09.339Z,11.45
2023-10-30T21:44:11.876Z,11.53
2023-10-30T21:49:14.091Z,11.73
2023-10-30T21:54:17.587Z,11.95
2023-10-30T21:59:19.755Z,11.66
2023-10-30T22:04:22.005Z,11.52
2023-10-30T22:09:25.526Z,11.60
2023-10-30T22:14:27.589Z,11.36
2023-10-30T22:19:29.990Z,11.47
2023-10-30T22:24:33.527Z,11.55
2023-10-30T22:29:35.621Z,11.32
2023-10-30T22:34:37.764Z,11.36
2023-10-30T22:39:41.236Z,11.25
2023-10-30T22:44:43.343Z,11.47
2023-10-30T22:49:45.488Z,11.82
2023-10-30T22:54:48.935Z,11.40
2023-10-30T22:59:51.072Z,11.42
2023-10-30T23:04:53.462Z,11.35
2023-10-30T23:09:57.081Z,11.56
2023-10-30T23:14:59.439Z,11.70
2023-10-30T23:20:01.769Z,11.44
2023-10-30T23:25:06.706Z,11.69
2023-10-30T23:30:09.977Z,11.52
2023-10-30T23:35:12.129Z,11.58
2023-10-30T23:40:15.892Z,11.44
2023-10-30T23:45:18.022Z,11.81
2023-10-30T23:50:20.218Z,11.91
2023-10-30T23:55:23.894Z,11.80
